Monroe, Mississippi
Current Conditions -  °F | °C
As of 9:53 AM on Friday 31 Oct 2014 (Local Time) from KMCB Reporting Station
Clear Clear  
Wind Chill: 62°   Ceiling: Unl
Heat Index: 62°   Visibility: 10mi
Dew Point: 47°   Wind: 14mph
Humidity: 58%   Direction: 340°NNW
Pressure: 30.07"   Gusts: NA
Location:  31.4031°N, 90.8369°W
Report Text: KMCB 311453Z AUTO 34012KT 10SM CLR 17/08 A3007 RMK AO2 SLP181 T01670083 52012
Loading
Personal Weather Stations






























Interactive Weather Map
Tropical Storm Tracking
New forecast layout! Learn more

10-Day Weather Forecast

Advertisements
Track Severe Weather on mobile